createdAt,value
2018-08-06T00:00:21.557Z,2.73
2018-08-06T00:02:49.975Z,2.40
2018-08-06T00:05:18.473Z,2.03
2018-08-06T00:07:46.688Z,2.10
2018-08-06T00:10:18.178Z,2.53
2018-08-06T00:12:46.393Z,2.27
2018-08-06T00:15:15.237Z,2.33
2018-08-06T00:17:43.755Z,2.73
2018-08-06T00:20:13.120Z,2.50
2018-08-06T00:22:41.732Z,2.40
2018-08-06T00:25:12.084Z,2.50
2018-08-06T00:27:40.942Z,2.50
2018-08-06T00:30:15.266Z,2.50
2018-08-06T00:32:44.280Z,2.30
2018-08-06T00:35:12.928Z,2.23
2018-08-06T00:37:41.295Z,2.87
2018-08-06T00:40:14.259Z,2.87
2018-08-06T00:42:43.168Z,2.60
2018-08-06T00:45:13.420Z,2.90
2018-08-06T00:47:41.652Z,2.90
2018-08-06T00:50:10.530Z,2.80
2018-08-06T00:52:39.074Z,2.63
2018-08-06T00:55:10.297Z,2.70
2018-08-06T00:57:38.715Z,2.60
2018-08-06T01:00:09.007Z,2.70
2018-08-06T01:02:37.228Z,2.90
2018-08-06T01:05:06.576Z,2.40
2018-08-06T01:07:34.772Z,2.53
2018-08-06T01:10:03.222Z,3.20
2018-08-06T01:12:31.456Z,3.10
2018-08-06T01:14:59.732Z,3.30
2018-08-06T01:17:28.071Z,3.03
2018-08-06T01:19:56.297Z,3.07
2018-08-06T01:22:24.536Z,2.77
2018-08-06T01:24:53.484Z,2.67
2018-08-06T01:27:21.725Z,3.00
2018-08-06T01:29:49.992Z,3.00
2018-08-06T01:32:18.220Z,3.67
2018-08-06T01:34:46.431Z,2.73
2018-08-06T01:37:14.657Z,3.27
2018-08-06T01:39:42.911Z,3.20
2018-08-06T01:42:11.093Z,3.20
2018-08-06T01:44:39.348Z,2.70
2018-08-06T01:47:07.590Z,2.77
2018-08-06T01:49:35.777Z,3.17
2018-08-06T01:52:04.029Z,2.67
2018-08-06T01:54:32.225Z,2.70
2018-08-06T01:57:00.465Z,2.60
2018-08-06T01:59:28.684Z,2.93
2018-08-06T02:01:56.941Z,3.10
2018-08-06T02:04:25.175Z,2.67
2018-08-06T02:06:53.464Z,2.80
2018-08-06T02:09:21.707Z,2.80
2018-08-06T02:11:49.969Z,3.33
2018-08-06T02:14:18.192Z,3.33
2018-08-06T02:16:46.416Z,3.47
2018-08-06T02:19:14.624Z,3.60
2018-08-06T02:21:42.841Z,3.30
2018-08-06T02:24:11.047Z,3.03
2018-08-06T02:26:39.333Z,3.40
2018-08-06T02:29:07.573Z,3.43
2018-08-06T02:31:35.791Z,3.10
2018-08-06T02:34:04.025Z,3.00
2018-08-06T02:36:32.270Z,2.90
2018-08-06T02:39:00.490Z,3.67
2018-08-06T02:41:28.724Z,3.30
2018-08-06T02:43:56.980Z,3.17
2018-08-06T02:46:25.174Z,3.20
2018-08-06T02:48:53.455Z,3.43
2018-08-06T02:51:21.685Z,3.10
2018-08-06T02:53:50.013Z,3.33
2018-08-06T02:56:18.237Z,3.30
2018-08-06T02:58:46.488Z,3.57
2018-08-06T03:01:14.694Z,3.57
2018-08-06T03:03:42.924Z,3.53
2018-08-06T03:06:11.191Z,3.40
2018-08-06T03:08:39.405Z,3.40
2018-08-06T03:11:07.711Z,3.57
2018-08-06T03:13:35.942Z,3.30
2018-08-06T03:16:04.209Z,3.37
2018-08-06T03:18:32.417Z,3.67
2018-08-06T03:21:00.612Z,3.20
2018-08-06T03:23:28.894Z,3.67
2018-08-06T03:25:57.089Z,3.67
2018-08-06T03:28:25.303Z,2.97
2018-08-06T03:30:53.525Z,3.50
2018-08-06T03:33:21.743Z,3.50
2018-08-06T03:35:50.061Z,3.80
2018-08-06T03:38:18.282Z,3.93
2018-08-06T03:40:46.517Z,3.40
2018-08-06T03:43:15.220Z,4.00
2018-08-06T03:45:43.413Z,3.60
2018-08-06T03:48:11.621Z,3.73
2018-08-06T03:50:39.837Z,3.60
2018-08-06T03:53:08.104Z,4.00
2018-08-06T03:55:36.481Z,3.87
2018-08-06T03:58:04.696Z,3.70
2018-08-06T04:00:32.911Z,3.50
2018-08-06T04:03:01.144Z,3.70
2018-08-06T04:05:29.359Z,3.60
2018-08-06T04:07:57.681Z,3.73
2018-08-06T04:10:25.879Z,3.93
2018-08-06T04:12:54.104Z,3.50
2018-08-06T04:15:22.327Z,4.30
2018-08-06T04:17:50.560Z,4.07
2018-08-06T04:20:18.759Z,4.80
2018-08-06T04:22:47.001Z,3.90
2018-08-06T04:25:15.213Z,4.23
2018-08-06T04:27:44.449Z,3.83
2018-08-06T04:30:13.849Z,3.83
2018-08-06T04:32:42.473Z,3.63
2018-08-06T04:35:10.632Z,4.00
2018-08-06T04:37:38.904Z,3.43
2018-08-06T04:40:08.456Z,3.97
2018-08-06T04:42:36.675Z,4.00
2018-08-06T04:45:05.787Z,4.10
2018-08-06T04:47:34.023Z,4.23
2018-08-06T04:50:02.220Z,3.93
2018-08-06T04:52:30.510Z,4.30
2018-08-06T04:54:58.708Z,3.63
2018-08-06T04:57:26.955Z,3.70
2018-08-06T04:59:55.181Z,4.63
2018-08-06T05:02:23.414Z,4.13
2018-08-06T05:04:51.728Z,3.43
2018-08-06T05:07:19.948Z,3.87
2018-08-06T05:09:48.201Z,4.10
2018-08-06T05:12:16.433Z,3.77
2018-08-06T05:14:44.651Z,4.10
2018-08-06T05:17:12.910Z,4.03
2018-08-06T05:19:41.251Z,3.83
2018-08-06T05:22:09.488Z,3.97
2018-08-06T05:24:38.019Z,3.73
2018-08-06T05:27:06.215Z,4.33
2018-08-06T05:29:34.445Z,4.53
2018-08-06T05:32:02.696Z,4.40
2018-08-06T05:34:30.908Z,4.03
2018-08-06T05:36:59.177Z,4.33
2018-08-06T05:39:27.404Z,3.77
2018-08-06T05:41:55.661Z,3.93
2018-08-06T05:44:23.861Z,4.17
2018-08-06T05:46:52.088Z,3.77
2018-08-06T05:49:20.343Z,3.70
2018-08-06T05:51:48.565Z,4.03
2018-08-06T05:54:16.832Z,3.93
2018-08-06T05:56:45.037Z,4.77
2018-08-06T05:59:13.279Z,4.00
2018-08-06T06:01:41.488Z,4.70
2018-08-06T06:04:09.720Z,4.00
2018-08-06T06:06:37.943Z,4.60
2018-08-06T06:09:08.527Z,4.97
2018-08-06T06:11:37.026Z,4.23
2018-08-06T06:14:06.068Z,4.50
2018-08-06T06:16:34.353Z,4.67
2018-08-06T06:19:02.584Z,4.47
2018-08-06T06:21:30.819Z,4.17
2018-08-06T06:23:59.087Z,4.43
2018-08-06T06:26:27.339Z,4.70
2018-08-06T06:28:55.554Z,4.77
2018-08-06T06:31:24.312Z,4.63
2018-08-06T06:33:53.189Z,4.23
2018-08-06T06:36:21.422Z,3.77
2018-08-06T06:38:49.644Z,3.70
2018-08-06T06:41:17.870Z,3.00
2018-08-06T06:43:46.111Z,3.23
2018-08-06T06:46:14.356Z,3.33
2018-08-06T06:48:42.637Z,3.27
2018-08-06T06:51:10.780Z,3.27
2018-08-06T06:53:39.075Z,3.00
2018-08-06T06:56:07.297Z,3.30
2018-08-06T06:58:35.570Z,3.50
2018-08-06T07:01:03.786Z,3.00
2018-08-06T07:03:32.078Z,3.53
2018-08-06T07:06:00.288Z,3.63
2018-08-06T07:08:29.013Z,3.63
2018-08-06T07:10:57.263Z,3.57
2018-08-06T07:13:25.628Z,4.20
2018-08-06T07:15:53.852Z,3.60
2018-08-06T07:18:22.117Z,3.37
2018-08-06T07:20:50.355Z,3.83
2018-08-06T07:23:18.608Z,3.90
2018-08-06T07:25:46.808Z,4.23
2018-08-06T07:28:15.267Z,3.47
2018-08-06T07:30:43.504Z,3.50
2018-08-06T07:33:11.750Z,3.50
2018-08-06T07:35:39.953Z,3.63
2018-08-06T07:38:08.202Z,3.83
2018-08-06T07:40:36.425Z,4.60
2018-08-06T07:43:04.654Z,4.43
2018-08-06T07:45:32.970Z,3.87
2018-08-06T07:48:01.248Z,3.40
2018-08-06T07:50:29.463Z,3.60
2018-08-06T07:52:57.708Z,3.80
2018-08-06T07:55:26.033Z,4.13
2018-08-06T07:57:54.249Z,3.40
2018-08-06T08:00:22.498Z,3.50
2018-08-06T08:02:50.723Z,3.20
2018-08-06T08:05:19.657Z,3.63
2018-08-06T08:07:48.543Z,4.57
2018-08-06T08:10:19.149Z,3.87
2018-08-06T08:12:47.610Z,3.33
2018-08-06T08:15:17.361Z,3.57
2018-08-06T08:17:46.527Z,3.83
2018-08-06T08:20:15.922Z,3.53
2018-08-06T08:22:44.185Z,3.60
2018-08-06T08:25:14.099Z,3.40
2018-08-06T08:27:42.352Z,3.37
2018-08-06T08:30:11.990Z,3.70
2018-08-06T08:32:40.264Z,3.37
2018-08-06T08:35:08.947Z,4.10
2018-08-06T08:37:37.233Z,3.40
2018-08-06T08:40:08.065Z,3.73
2018-08-06T08:42:36.288Z,4.00
2018-08-06T08:45:06.264Z,4.50
2018-08-06T08:47:34.506Z,3.67
2018-08-06T08:50:02.736Z,3.63
2018-08-06T08:52:30.982Z,4.03
2018-08-06T08:54:59.284Z,3.83
2018-08-06T08:57:27.608Z,4.33
2018-08-06T08:59:55.839Z,3.67
2018-08-06T09:02:24.078Z,4.30
2018-08-06T09:04:53.069Z,3.93
2018-08-06T09:07:21.403Z,4.10
2018-08-06T09:09:49.641Z,3.73
2018-08-06T09:12:17.853Z,4.00
2018-08-06T09:14:46.071Z,4.07
2018-08-06T09:17:14.287Z,4.90
2018-08-06T09:19:42.590Z,3.97
2018-08-06T09:22:10.799Z,4.53
2018-08-06T09:24:39.064Z,4.13
2018-08-06T09:27:07.316Z,4.53
2018-08-06T09:29:35.555Z,4.27
2018-08-06T09:32:03.770Z,4.17
2018-08-06T09:34:32.092Z,4.30
2018-08-06T09:37:00.340Z,4.70
2018-08-06T09:39:28.603Z,4.20
2018-08-06T09:41:56.865Z,4.50
2018-08-06T09:44:25.164Z,4.50
2018-08-06T09:46:53.347Z,5.10
2018-08-06T09:49:21.554Z,5.17
2018-08-06T09:51:49.782Z,4.60
2018-08-06T09:54:18.071Z,4.50
2018-08-06T09:56:46.316Z,4.60
2018-08-06T09:59:14.540Z,4.57
2018-08-06T10:01:48.183Z,4.70
2018-08-06T10:04:16.425Z,4.67
2018-08-06T10:06:45.841Z,4.53
2018-08-06T10:09:13.884Z,4.87
2018-08-06T10:11:42.923Z,4.87
2018-08-06T10:14:11.192Z,5.23
2018-08-06T10:16:40.112Z,5.30
2018-08-06T10:19:08.497Z,5.03
2018-08-06T10:21:36.756Z,5.03
2018-08-06T10:24:05.345Z,4.40
2018-08-06T10:26:33.567Z,4.43
2018-08-06T10:29:01.800Z,4.97
2018-08-06T10:31:30.014Z,4.80
2018-08-06T10:33:58.240Z,4.70
2018-08-06T10:36:26.472Z,4.83
2018-08-06T10:38:54.710Z,4.93
2018-08-06T10:41:23.156Z,4.60
2018-08-06T10:43:51.643Z,4.73
2018-08-06T10:46:19.861Z,4.67
2018-08-06T10:48:48.074Z,4.60
2018-08-06T10:51:16.332Z,4.63
2018-08-06T10:53:44.953Z,4.17
2018-08-06T10:56:13.219Z,4.30
2018-08-06T10:58:41.439Z,4.67
2018-08-06T11:01:09.680Z,4.40
2018-08-06T11:03:37.934Z,4.13
2018-08-06T11:06:06.132Z,4.43
2018-08-06T11:08:34.440Z,4.50
2018-08-06T11:11:02.672Z,4.80
2018-08-06T11:13:30.920Z,4.27
2018-08-06T11:15:59.150Z,4.60
2018-08-06T11:18:27.435Z,4.07
2018-08-06T11:20:55.640Z,4.30
2018-08-06T11:23:23.884Z,4.33
2018-08-06T11:25:52.097Z,4.30
2018-08-06T11:28:20.389Z,4.20
2018-08-06T11:30:48.590Z,4.40
2018-08-06T11:33:16.823Z,5.00
2018-08-06T11:35:45.060Z,4.27
2018-08-06T11:38:13.308Z,4.63
2018-08-06T11:40:41.510Z,4.40
2018-08-06T11:43:09.871Z,4.27
2018-08-06T11:45:38.114Z,3.77
2018-08-06T11:48:06.328Z,4.40
2018-08-06T11:50:34.590Z,4.17
2018-08-06T11:53:02.528Z,4.33
2018-08-06T11:55:30.804Z,4.15
2018-08-06T11:57:59.028Z,4.25
2018-08-06T12:00:28.032Z,4.08
2018-08-06T12:02:56.261Z,3.90
2018-08-06T12:05:24.556Z,3.80
2018-08-06T12:07:52.777Z,4.20
2018-08-06T12:10:21.001Z,4.05
2018-08-06T12:12:49.802Z,4.47
2018-08-06T12:15:18.084Z,4.33
2018-08-06T12:17:46.284Z,4.37
2018-08-06T12:20:16.563Z,3.83
2018-08-06T12:22:45.980Z,3.70
2018-08-06T12:25:15.158Z,4.08
2018-08-06T12:27:43.952Z,4.22
2018-08-06T12:30:16.441Z,4.47
2018-08-06T12:32:45.519Z,4.10
2018-08-06T12:35:14.106Z,3.87
2018-08-06T12:37:42.441Z,3.98
2018-08-06T12:40:13.105Z,3.98
2018-08-06T12:42:41.515Z,4.42
2018-08-06T12:45:10.892Z,3.92
2018-08-06T12:47:39.721Z,3.85
2018-08-06T12:50:09.204Z,4.00
2018-08-06T12:52:37.873Z,4.03
2018-08-06T12:55:07.133Z,4.00
2018-08-06T12:57:35.551Z,4.15
2018-08-06T13:00:04.576Z,4.22
2018-08-06T13:02:32.824Z,4.37
2018-08-06T13:05:01.090Z,4.28
2018-08-06T13:07:29.384Z,4.40
2018-08-06T13:09:57.604Z,3.85
2018-08-06T13:12:25.847Z,4.45
2018-08-06T13:14:54.039Z,4.92
2018-08-06T13:17:22.324Z,4.22
2018-08-06T13:19:50.559Z,4.17
2018-08-06T13:22:18.798Z,3.98
2018-08-06T13:24:47.022Z,3.77
2018-08-06T13:27:15.249Z,4.25
2018-08-06T13:29:43.533Z,4.17
2018-08-06T13:32:11.743Z,4.55
2018-08-06T13:34:39.980Z,4.17
2018-08-06T13:37:08.239Z,4.58
2018-08-06T13:39:36.486Z,4.35
2018-08-06T13:42:04.779Z,4.83
2018-08-06T13:44:32.998Z,4.55
2018-08-06T13:47:01.275Z,4.45
2018-08-06T13:49:29.550Z,4.12
2018-08-06T13:51:57.828Z,4.25
2018-08-06T13:54:26.065Z,4.35
2018-08-06T13:56:54.448Z,4.35
2018-08-06T13:59:22.770Z,4.08
2018-08-06T14:01:50.893Z,4.00
2018-08-06T14:04:19.164Z,4.87
2018-08-06T14:06:47.405Z,4.10
2018-08-06T14:09:15.641Z,4.10
2018-08-06T14:11:43.872Z,4.30
2018-08-06T14:14:12.082Z,4.28
2018-08-06T14:16:40.389Z,4.22
2018-08-06T14:19:08.611Z,4.10
2018-08-06T14:21:37.063Z,4.20
2018-08-06T14:24:05.031Z,3.90
2018-08-06T14:26:33.262Z,3.80
2018-08-06T14:29:01.556Z,3.90
2018-08-06T14:31:29.889Z,4.25
2018-08-06T14:33:58.104Z,3.92
2018-08-06T14:36:26.373Z,4.12
2018-08-06T14:38:54.623Z,4.22
2018-08-06T14:41:22.870Z,4.03
2018-08-06T14:43:51.081Z,4.40
2018-08-06T14:46:19.292Z,4.25
2018-08-06T14:48:47.653Z,4.25
2018-08-06T14:51:15.863Z,4.20
2018-08-06T14:53:43.817Z,4.25
2018-08-06T14:56:12.067Z,4.05
2018-08-06T14:58:40.316Z,4.40
2018-08-06T15:01:08.632Z,3.90
2018-08-06T15:03:36.856Z,3.75
2018-08-06T15:06:05.091Z,3.87
2018-08-06T15:08:33.335Z,3.70
2018-08-06T15:11:01.614Z,3.58
2018-08-06T15:13:29.813Z,3.42
2018-08-06T15:15:58.129Z,3.92
2018-08-06T15:18:26.369Z,3.65
2018-08-06T15:20:54.591Z,3.75
2018-08-06T15:23:22.882Z,3.47
2018-08-06T15:25:51.119Z,3.72
2018-08-06T15:28:19.356Z,3.05
2018-08-06T15:30:47.604Z,3.40
2018-08-06T15:33:15.878Z,3.67
2018-08-06T15:35:44.113Z,3.92
2018-08-06T15:38:12.427Z,4.40
2018-08-06T15:40:40.724Z,3.80
2018-08-06T15:43:08.971Z,3.47
2018-08-06T15:45:37.204Z,4.03
2018-08-06T15:48:05.545Z,3.90
2018-08-06T15:50:33.789Z,3.75
2018-08-06T15:53:02.021Z,3.60
2018-08-06T15:55:30.241Z,3.60
2018-08-06T15:57:59.062Z,4.10
2018-08-06T16:00:27.255Z,3.90
2018-08-06T16:02:55.584Z,3.42
2018-08-06T16:05:23.894Z,3.90
2018-08-06T16:07:52.127Z,3.87
2018-08-06T16:10:20.325Z,3.67
2018-08-06T16:12:48.716Z,4.00
2018-08-06T16:15:17.264Z,3.98
2018-08-06T16:17:45.746Z,3.50
2018-08-06T16:20:16.280Z,3.80
2018-08-06T16:22:44.527Z,4.05
2018-08-06T16:25:13.122Z,3.80
2018-08-06T16:27:41.336Z,3.90
2018-08-06T16:30:15.506Z,4.15
2018-08-06T16:32:44.516Z,4.00
2018-08-06T16:35:12.459Z,3.80
2018-08-06T16:37:40.692Z,3.90
2018-08-06T16:40:10.049Z,3.65
2018-08-06T16:42:38.316Z,3.80
2018-08-06T16:45:07.112Z,3.90
2018-08-06T16:47:35.819Z,4.22
2018-08-06T16:50:04.393Z,3.90
2018-08-06T16:52:32.736Z,4.00
2018-08-06T16:55:00.876Z,4.03
2018-08-06T16:57:29.132Z,4.12
2018-08-06T17:00:07.194Z,4.15
2018-08-06T17:02:35.512Z,4.35
2018-08-06T17:05:04.605Z,3.90
2018-08-06T17:07:32.856Z,3.80
2018-08-06T17:10:01.073Z,4.03
2018-08-06T17:12:29.422Z,4.03
2018-08-06T17:14:57.615Z,4.37
2018-08-06T17:17:25.936Z,4.10
2018-08-06T17:19:54.154Z,4.08
2018-08-06T17:22:29.989Z,3.47
2018-08-06T17:24:58.267Z,4.22
2018-08-06T17:27:26.484Z,3.72
2018-08-06T17:29:54.712Z,3.95
2018-08-06T17:32:22.960Z,3.70
2018-08-06T17:34:51.217Z,4.10
2018-08-06T17:37:19.452Z,4.22
2018-08-06T17:39:47.710Z,4.10
2018-08-06T17:42:15.957Z,4.00
2018-08-06T17:44:44.219Z,5.60
2018-08-06T17:47:12.473Z,4.67
2018-08-06T17:49:40.676Z,5.20
2018-08-06T17:52:08.952Z,6.60
2018-08-06T17:54:37.352Z,5.00
2018-08-06T17:57:05.631Z,4.80
2018-08-06T17:59:33.868Z,4.70
2018-08-06T18:02:02.116Z,4.50
2018-08-06T18:04:30.414Z,4.50
2018-08-06T18:06:58.642Z,4.17
2018-08-06T18:09:26.894Z,4.65
2018-08-06T18:11:55.144Z,4.12
2018-08-06T18:14:23.456Z,4.25
2018-08-06T18:16:51.715Z,4.10
2018-08-06T18:19:19.928Z,4.20
2018-08-06T18:21:48.227Z,4.40
2018-08-06T18:24:16.645Z,4.17
2018-08-06T18:26:46.269Z,4.90
2018-08-06T18:29:14.527Z,4.30
2018-08-06T18:31:42.852Z,7.60
2018-08-06T18:34:11.056Z,7.60
2018-08-06T18:36:39.291Z,6.83
2018-08-06T18:39:08.942Z,5.63
2018-08-06T18:41:37.252Z,4.27
2018-08-06T18:44:05.788Z,4.30
2018-08-06T18:46:34.022Z,4.47
2018-08-06T18:49:02.267Z,4.57
2018-08-06T18:51:30.489Z,4.10
2018-08-06T18:53:58.692Z,4.47
2018-08-06T18:56:27.656Z,4.50
2018-08-06T18:58:55.908Z,4.20
2018-08-06T19:01:24.132Z,5.40
2018-08-06T19:03:52.549Z,4.43
2018-08-06T19:06:20.776Z,4.30
2018-08-06T19:08:49.013Z,4.47
2018-08-06T19:11:17.267Z,4.43
2018-08-06T19:13:50.988Z,4.23
2018-08-06T19:16:19.200Z,4.80
2018-08-06T19:18:52.724Z,4.83
2018-08-06T19:21:20.933Z,4.40
2018-08-06T19:23:49.153Z,4.47
2018-08-06T19:26:17.389Z,4.70
2018-08-06T19:28:45.628Z,5.23
2018-08-06T19:31:19.160Z,4.93
2018-08-06T19:33:47.383Z,5.27
2018-08-06T19:36:15.680Z,6.30
2018-08-06T19:38:43.919Z,5.67
2018-08-06T19:41:12.183Z,5.60
2018-08-06T19:43:40.515Z,5.80
2018-08-06T19:46:09.081Z,5.90
2018-08-06T19:48:37.405Z,7.77
2018-08-06T19:51:05.764Z,6.10
2018-08-06T19:53:34.790Z,5.70
2018-08-06T19:56:08.475Z,5.63
2018-08-06T19:58:36.749Z,5.07
2018-08-06T20:01:05.330Z,5.00
2018-08-06T20:03:36.908Z,5.20
2018-08-06T20:06:05.430Z,5.47
2018-08-06T20:08:36.700Z,5.20
2018-08-06T20:11:05.296Z,5.60
2018-08-06T20:13:33.504Z,5.13
2018-08-06T20:16:01.707Z,5.47
2018-08-06T20:18:29.895Z,5.30
2018-08-06T20:20:58.147Z,5.83
2018-08-06T20:23:26.481Z,5.47
2018-08-06T20:25:54.691Z,5.77
2018-08-06T20:28:22.980Z,5.73
2018-08-06T20:30:51.224Z,5.90
2018-08-06T20:33:19.461Z,5.20
2018-08-06T20:35:47.700Z,4.93
2018-08-06T20:38:15.930Z,4.87
2018-08-06T20:40:44.286Z,5.00
2018-08-06T20:43:12.532Z,5.33
2018-08-06T20:45:40.756Z,5.20
2018-08-06T20:48:09.626Z,4.83
2018-08-06T20:50:37.899Z,4.53
2018-08-06T20:53:06.147Z,5.07
2018-08-06T20:55:34.374Z,5.40
2018-08-06T20:58:02.586Z,5.47
2018-08-06T21:00:30.844Z,5.10
2018-08-06T21:02:59.134Z,4.70
2018-08-06T21:05:27.364Z,4.80
2018-08-06T21:07:55.597Z,4.87
2018-08-06T21:10:23.848Z,5.10
2018-08-06T21:12:52.159Z,5.13
2018-08-06T21:15:24.892Z,5.00
2018-08-06T21:17:53.248Z,5.67
2018-08-06T21:20:21.500Z,5.23
2018-08-06T21:22:50.110Z,5.10
2018-08-06T21:25:18.380Z,5.33
2018-08-06T21:27:47.775Z,5.07
2018-08-06T21:30:18.223Z,5.00
2018-08-06T21:32:49.658Z,5.57
2018-08-06T21:35:18.754Z,4.87
2018-08-06T21:37:48.467Z,5.40
2018-08-06T21:40:17.251Z,5.47
2018-08-06T21:42:45.736Z,5.03
2018-08-06T21:45:13.957Z,4.90
2018-08-06T21:47:42.210Z,5.17
2018-08-06T21:50:11.160Z,4.90
2018-08-06T21:52:39.421Z,4.63
2018-08-06T21:55:08.964Z,4.43
2018-08-06T21:57:37.268Z,4.93
2018-08-06T22:00:42.375Z,4.93
2018-08-06T22:03:12.732Z,5.43
2018-08-06T22:05:41.178Z,5.13
2018-08-06T22:08:09.552Z,5.00
2018-08-06T22:10:37.860Z,4.87
2018-08-06T22:13:06.619Z,5.30
2018-08-06T22:15:34.854Z,5.10
2018-08-06T22:18:03.172Z,5.27
2018-08-06T22:20:31.408Z,5.50
2018-08-06T22:23:00.062Z,5.17
2018-08-06T22:25:28.404Z,6.03
2018-08-06T22:27:56.684Z,5.13
2018-08-06T22:30:24.894Z,5.60
2018-08-06T22:32:53.136Z,5.70
2018-08-06T22:35:21.332Z,5.67
2018-08-06T22:37:49.868Z,5.60
2018-08-06T22:40:18.259Z,5.47
2018-08-06T22:42:46.406Z,5.37
2018-08-06T22:45:21.393Z,6.10
2018-08-06T22:47:49.608Z,5.37
2018-08-06T22:50:17.826Z,6.10
2018-08-06T22:52:45.780Z,5.83
2018-08-06T22:55:14.038Z,5.43
2018-08-06T22:57:42.760Z,5.70
2018-08-06T23:00:13.195Z,6.03
2018-08-06T23:02:41.707Z,6.60
2018-08-06T23:05:10.916Z,6.57
2018-08-06T23:07:39.196Z,6.67
2018-08-06T23:10:12.268Z,6.40
2018-08-06T23:12:40.502Z,6.27
2018-08-06T23:15:12.616Z,6.17
2018-08-06T23:17:40.930Z,6.53
2018-08-06T23:20:09.733Z,6.63
2018-08-06T23:22:38.228Z,6.50
2018-08-06T23:25:07.112Z,6.47
2018-08-06T23:27:36.025Z,7.17
2018-08-06T23:30:06.765Z,6.40
2018-08-06T23:32:35.039Z,7.10
2018-08-06T23:35:03.277Z,7.07
2018-08-06T23:37:31.562Z,7.07
2018-08-06T23:39:59.768Z,6.23
2018-08-06T23:42:27.997Z,6.37
2018-08-06T23:45:03.007Z,7.77
2018-08-06T23:47:31.256Z,6.33
2018-08-06T23:49:59.559Z,7.13
2018-08-06T23:52:27.855Z,7.17
2018-08-06T23:54:56.059Z,7.53
2018-08-06T23:57:24.325Z,6.40
2018-08-06T23:59:52.579Z,6.60
